Time;durP1;ratioP1;P1;durP2;ratioP2;P2;SDS_P1;SDS_P2;PMS_P1;PMS_P2;Temp;Humidity;BMP_temperature;BMP_pressure;BME280_temperature;BME280_humidity;BME280_pressure;Samples;Min_cycle;Max_cycle;Signal;HPM_P1;HPM_P2
2022/10/12 00:01:33;;;;;;;12.50;6.28;;;;;;;5.23;100.00;102460.56;5070121;28;20028;-67
2022/10/12 00:03:59;;;;;;;13.52;6.43;;;;;;;5.26;100.00;102459.50;5069902;28;20039;-67
2022/10/12 00:06:24;;;;;;;12.57;7.97;;;;;;;5.28;100.00;102454.94;5069604;28;20071;-67
2022/10/12 00:08:52;;;;;;;14.88;7.40;;;;;;;5.29;100.00;102456.59;5069974;28;20033;-67
2022/10/12 00:11:20;;;;;;;11.85;6.60;;;;;;;5.31;100.00;102462.63;5069597;28;20483;-67
2022/10/12 00:13:46;;;;;;;12.13;7.05;;;;;;;5.33;100.00;102457.22;5069816;28;20035;-67
2022/10/12 00:16:13;;;;;;;13.02;6.72;;;;;;;5.35;100.00;102463.22;5069825;28;20052;-67
2022/10/12 00:18:39;;;;;;;18.13;6.50;;;;;;;5.34;99.95;102456.25;5069902;28;20028;-67
2022/10/12 00:21:08;;;;;;;14.88;8.23;;;;;;;5.28;99.85;102453.13;5069814;28;20056;-67
2022/10/12 00:23:34;;;;;;;17.02;6.72;;;;;;;5.30;100.00;102449.53;5069846;28;20051;-67
2022/10/12 00:26:09;;;;;;;14.25;6.88;;;;;;;5.26;100.00;102447.09;5069844;28;20059;-67
2022/10/12 00:28:35;;;;;;;15.05;6.07;;;;;;;5.26;100.00;102444.47;5069341;28;20083;-67
2022/10/12 00:31:05;;;;;;;12.88;6.07;;;;;;;5.26;100.00;102444.47;5069356;28;20472;-67
2022/10/12 00:33:30;;;;;;;12.68;5.93;;;;;;;5.23;100.00;102443.88;5069540;28;20435;-67
2022/10/12 00:35:56;;;;;;;12.40;6.32;;;;;;;5.18;100.00;102451.31;5069520;28;20040;-67
2022/10/12 00:38:21;;;;;;;11.88;7.32;;;;;;;5.14;100.00;102447.25;5069657;28;20048;-67
2022/10/12 00:40:47;;;;;;;12.35;5.63;;;;;;;5.16;100.00;102455.91;5069041;28;20384;-67
2022/10/12 00:43:33;;;;;;;12.68;7.05;;;;;;;5.14;100.00;102444.63;5069493;28;20054;-67
2022/10/12 00:46:01;;;;;;;13.75;6.05;;;;;;;5.09;100.00;102454.72;5069397;28;20021;-67
2022/10/12 00:48:27;;;;;;;12.10;6.07;;;;;;;5.05;100.00;102447.00;5069609;28;20549;-67
2022/10/12 00:50:53;;;;;;;13.00;6.82;;;;;;;5.05;100.00;102448.81;5069435;28;20020;-68
2022/10/12 00:53:25;;;;;;;12.27;6.50;;;;;;;5.03;100.00;102446.31;5069469;28;20032;-67
2022/10/12 00:55:56;;;;;;;13.05;6.38;;;;;;;4.99;100.00;102449.31;5068032;28;20046;-67
2022/10/12 00:58:22;;;;;;;;;;;;;;;5.05;100.00;102449.66;5069727;28;20495;-67
2022/10/12 01:00:48;;;;;;;11.82;6.60;;;;;;;5.05;100.00;102451.44;5069284;28;19927;-67
2022/10/12 01:03:18;;;;;;;13.38;7.55;;;;;;;5.03;100.00;102441.00;5069386;28;20541;-67
2022/10/12 01:05:43;;;;;;;12.63;6.82;;;;;;;5.06;100.00;102450.50;5069405;28;20032;-67
2022/10/12 01:08:08;;;;;;;16.92;7.90;;;;;;;5.07;100.00;102452.19;5068854;28;20033;-67
2022/10/12 01:10:34;;;;;;;14.77;7.30;;;;;;;5.09;100.00;102446.78;5069073;28;20111;-67
2022/10/12 01:13:01;;;;;;;14.75;7.00;;;;;;;5.08;100.00;102448.56;5068827;28;20115;-67
2022/10/12 01:15:32;;;;;;;15.27;6.53;;;;;;;5.11;100.00;102450.13;5068943;28;20056;-67
2022/10/12 01:18:09;;;;;;;14.23;7.78;;;;;;;5.13;100.00;102450.84;5069082;28;20032;-67
2022/10/12 01:21:11;;;;;;;13.63;7.13;;;;;;;5.15;100.00;102444.47;5069120;28;20017;-67
2022/10/12 01:24:24;;;;;;;12.05;7.13;;;;;;;5.18;100.00;102446.88;5069266;28;20468;-64
2022/10/12 01:27:00;;;;;;;12.38;6.78;;;;;;;5.18;100.00;102435.47;5040430;28;21000;-64
2022/10/12 01:29:44;;;;;;;16.48;7.53;;;;;;;5.18;100.00;102431.00;5068803;28;20075;-64
2022/10/12 01:32:18;;;;;;;8.95;5.30;;;;;;;5.19;100.00;102431.88;5068436;28;20357;-64
2022/10/12 01:35:13;;;;;;;15.60;6.88;;;;;;;5.21;100.00;102422.84;5068981;28;20056;-65
2022/10/12 01:38:03;;;;;;;15.55;7.68;;;;;;;5.25;100.00;102421.63;5059095;28;20041;-64
2022/10/12 01:40:44;;;;;;;11.27;6.10;;;;;;;5.28;100.00;102416.09;5068908;28;20064;-65
2022/10/12 01:43:09;;;;;;;12.57;7.40;;;;;;;5.30;100.00;102415.97;5069010;28;20034;-64
2022/10/12 01:45:35;;;;;;;10.15;6.50;;;;;;;5.32;100.00;102411.41;5068957;28;20024;-64
2022/10/12 01:48:02;;;;;;;9.50;5.70;;;;;;;5.32;100.00;102411.41;5068876;28;20113;-64
2022/10/12 01:50:47;;;;;;;11.73;5.57;;;;;;;5.25;100.00;102392.53;5068822;28;20102;-64
2022/10/12 01:53:25;;;;;;;9.65;5.78;;;;;;;5.34;100.00;102400.69;5072419;28;20016;-64
2022/10/12 01:56:16;;;;;;;11.82;6.20;;;;;;;5.28;100.00;102405.50;5072546;28;20021;-64
2022/10/12 01:58:42;;;;;;;10.48;5.60;;;;;;;5.25;100.00;102402.28;5056767;28;20052;-64
2022/10/12 02:01:31;;;;;;;9.90;5.70;;;;;;;5.21;100.00;102406.97;5072530;28;20715;-64
2022/10/12 02:04:02;;;;;;;10.93;6.55;;;;;;;5.19;100.00;102390.38;5072453;28;20282;-66
2022/10/12 02:06:34;;;;;;;12.07;5.75;;;;;;;5.18;100.00;102383.41;5072680;28;20032;-67
2022/10/12 02:09:23;;;;;;;10.68;5.65;;;;;;;5.22;100.00;102392.78;5072342;28;20025;-67
2022/10/12 02:11:52;;;;;;;11.93;5.30;;;;;;;5.22;100.00;102399.88;5066547;28;20492;-67
2022/10/12 02:14:22;;;;;;;9.35;5.65;;;;;;;5.17;100.00;102392.31;5071553;28;20024;-67
2022/10/12 02:16:57;;;;;;;13.07;5.00;;;;;;;5.16;100.00;102395.06;5072407;28;20660;-67
2022/10/12 02:19:29;;;;;;;11.20;5.88;;;;;;;5.13;100.00;102397.97;5072194;28;20036;-67
2022/10/12 02:21:58;;;;;;;12.00;5.85;;;;;;;5.13;100.00;102400.59;5072131;28;20103;-67
2022/10/12 02:24:24;;;;;;;12.57;6.45;;;;;;;5.10;100.00;102380.53;5072391;28;20066;-67
2022/10/12 02:26:52;;;;;;;9.88;5.45;;;;;;;5.06;100.00;102387.03;5074670;28;20418;-67
2022/10/12 02:29:25;;;;;;;10.43;5.28;;;;;;;5.10;100.00;102387.63;5072026;28;20031;-67
2022/10/12 02:32:20;;;;;;;11.18;6.38;;;;;;;5.11;100.00;102379.59;5071945;28;20032;-67
2022/10/12 02:35:05;;;;;;;12.98;5.32;;;;;;;5.13;100.00;102382.09;5062261;28;20396;-67
2022/10/12 02:37:37;;;;;;;9.85;4.90;;;;;;;5.13;100.00;102376.81;5071017;28;20036;-67
2022/10/12 02:40:18;;;;;;;11.27;5.80;;;;;;;5.14;100.00;102387.28;5071649;28;20033;-67
2022/10/12 02:42:50;;;;;;;11.57;5.23;;;;;;;5.11;100.00;102387.53;5071150;28;20066;-67
2022/10/12 02:45:18;;;;;;;8.77;4.70;;;;;;;5.04;100.00;102373.09;5071871;28;20052;-67
2022/10/12 02:47:46;;;;;;;7.20;4.97;;;;;;;5.00;100.00;102380.44;5071480;28;20065;-67
2022/10/12 02:50:14;;;;;;;7.70;5.13;;;;;;;4.96;100.00;102380.81;5071752;28;20024;-67
2022/10/12 02:52:39;;;;;;;11.30;5.20;;;;;;;4.95;100.00;102371.19;5071511;28;20036;-67
2022/10/12 02:55:05;;;;;;;13.35;7.45;;;;;;;4.95;100.00;102374.69;5071513;28;20073;-67
2022/10/12 02:57:31;;;;;;;14.13;6.03;;;;;;;4.95;100.00;102373.81;5071765;28;20153;-67
2022/10/12 02:59:56;;;;;;;10.25;5.65;;;;;;;4.94;100.00;102377.44;5071577;28;20040;-67
2022/10/12 03:02:21;;;;;;;11.18;5.80;;;;;;;4.92;100.00;102366.97;5071008;28;20037;-67
2022/10/12 03:04:47;;;;;;;9.60;4.40;;;;;;;4.88;100.00;102373.47;5071210;28;20028;-67
2022/10/12 03:07:12;;;;;;;10.05;5.20;;;;;;;4.83;100.00;102360.63;5071276;28;20036;-67
2022/10/12 03:09:37;;;;;;;13.18;5.68;;;;;;;4.81;100.00;102353.78;5070893;28;20072;-67
2022/10/12 03:12:03;;;;;;;9.15;5.47;;;;;;;4.81;100.00;102359.06;5071240;28;20119;-67
2022/10/12 03:14:28;;;;;;;12.75;5.63;;;;;;;4.81;100.00;102361.72;5052414;28;20039;-67
2022/10/12 03:16:54;;;;;;;20.08;6.82;;;;;;;4.85;100.00;102363.16;5070912;28;20488;-67
2022/10/12 03:19:19;;;;;;;9.90;6.13;;;;;;;4.87;100.00;102358.56;5071180;28;20036;-67
2022/10/12 03:21:44;;;;;;;10.00;5.72;;;;;;;4.88;100.00;102354.16;5071100;28;20032;-67
2022/10/12 03:24:10;;;;;;;7.20;5.32;;;;;;;4.91;100.00;102359.19;5070871;28;20025;-67
2022/10/12 03:26:35;;;;;;;12.98;6.28;;;;;;;4.87;100.00;102353.28;5070850;28;20028;-67
2022/10/12 03:29:01;;;;;;;11.23;5.85;;;;;;;4.89;100.00;102350.53;5070828;28;20107;-67
2022/10/12 03:31:26;;;;;;;9.13;6.25;;;;;;;4.88;100.00;102362.06;5070629;28;20549;-67
2022/10/12 03:33:51;;;;;;;8.07;5.40;;;;;;;4.86;100.00;102359.53;5070447;28;20032;-67
2022/10/12 03:36:17;;;;;;;11.80;5.05;;;;;;;4.83;100.00;102351.84;5070330;28;20040;-67
2022/10/12 03:38:42;;;;;;;9.70;5.78;;;;;;;4.83;100.00;102355.34;5070401;28;20052;-67
2022/10/12 03:41:08;;;;;;;21.83;6.00;;;;;;;4.79;100.00;102364.50;5069777;28;20040;-67
2022/10/12 03:43:33;;;;;;;9.15;5.90;;;;;;;4.74;100.00;102355.22;5070427;28;20027;-67
2022/10/12 03:45:59;;;;;;;9.63;5.88;;;;;;;4.72;100.00;102355.34;5070543;28;20466;-67
2022/10/12 03:48:24;;;;;;;13.55;6.28;;;;;;;4.73;100.00;102356.19;5070470;28;20017;-67
2022/10/12 03:50:51;;;;;;;10.75;6.10;;;;;;;4.73;100.00;102354.38;5069204;28;20067;-67
2022/10/12 03:53:17;;;;;;;10.77;6.70;;;;;;;4.76;100.00;102351.50;5070324;28;20522;-67
2022/10/12 03:55:43;;;;;;;13.73;6.10;;;;;;;4.74;100.00;102348.16;5070415;28;20095;-67
2022/10/12 03:58:08;;;;;;;7.80;4.95;;;;;;;4.76;100.00;102350.66;5070281;28;20025;-67
2022/10/12 04:00:34;;;;;;;10.18;6.15;;;;;;;4.74;100.00;102342.00;5070223;28;20078;-67
2022/10/12 04:03:01;;;;;;;16.88;8.55;;;;;;;4.72;100.00;102341.31;5069869;28;20495;-67
2022/10/12 04:05:26;;;;;;;9.88;5.38;;;;;;;4.71;100.00;102340.44;5070067;28;20488;-67
2022/10/12 04:07:52;;;;;;;9.32;5.30;;;;;;;4.72;100.00;102346.59;5070008;28;20032;-67
2022/10/12 04:10:17;;;;;;;10.57;5.32;;;;;;;4.72;100.00;102347.44;5069825;28;20032;-67
2022/10/12 04:12:43;;;;;;;13.05;6.35;;;;;;;4.72;100.00;102341.31;5069821;28;20032;-67
2022/10/12 04:15:08;;;;;;;10.82;5.03;;;;;;;4.71;100.00;102343.09;5069006;28;20052;-67
2022/10/12 04:17:34;;;;;;;10.80;6.22;;;;;;;4.68;100.00;102340.69;5069353;28;20044;-67
2022/10/12 04:19:59;;;;;;;10.90;5.75;;;;;;;4.67;100.00;102339.03;5068605;28;20037;-65
2022/10/12 04:22:25;;;;;;;13.35;5.93;;;;;;;4.64;100.00;102336.63;5068955;28;20082;-66
2022/10/12 04:24:50;;;;;;;12.80;6.03;;;;;;;4.67;100.00;102335.53;5069904;28;20085;-64
2022/10/12 04:27:15;;;;;;;12.02;6.75;;;;;;;4.64;100.00;102331.34;5068501;28;20023;-64
2022/10/12 04:29:41;;;;;;;9.38;5.57;;;;;;;4.59;100.00;102329.06;5069767;28;20131;-64
2022/10/12 04:32:06;;;;;;;18.65;7.13;;;;;;;4.55;100.00;102332.88;5069706;28;20036;-64
2022/10/12 04:34:32;;;;;;;11.75;5.30;;;;;;;4.50;100.00;102326.28;5069684;28;20464;-64
2022/10/12 04:36:57;;;;;;;9.70;5.35;;;;;;;4.46;100.00;102332.78;5069099;28;20028;-64
2022/10/12 04:39:22;;;;;;;11.65;5.28;;;;;;;4.43;100.00;102331.22;5069498;28;20082;-64
2022/10/12 04:41:48;;;;;;;11.70;5.78;;;;;;;4.42;100.00;102336.63;5069328;28;20028;-64
2022/10/12 04:44:13;;;;;;;10.57;5.95;;;;;;;4.38;100.00;102328.09;5069427;28;20048;-64
2022/10/12 04:46:38;;;;;;;13.23;6.10;;;;;;;4.38;100.00;102341.31;5069539;28;20029;-64
2022/10/12 04:49:04;;;;;;;13.15;5.32;;;;;;;4.38;100.00;102339.50;5069398;28;20024;-64
2022/10/12 04:51:29;;;;;;;13.43;6.05;;;;;;;4.40;100.00;102336.72;5069431;28;20025;-64
2022/10/12 04:53:54;;;;;;;14.35;6.03;;;;;;;4.43;100.00;102338.28;5069292;28;20029;-64
2022/10/12 04:56:19;;;;;;;13.30;6.43;;;;;;;4.43;100.00;102348.84;5069375;28;20046;-64
2022/10/12 04:58:45;;;;;;;11.27;7.03;;;;;;;4.42;100.00;102341.91;5069273;28;20029;-64
2022/10/12 05:01:10;;;;;;;19.48;8.55;;;;;;;4.41;100.00;102350.78;5069245;28;20484;-64
2022/10/12 05:03:36;;;;;;;12.73;5.85;;;;;;;4.41;100.00;102350.78;5069227;28;20040;-64
2022/10/12 05:06:01;;;;;;;15.35;6.68;;;;;;;4.39;100.00;102343.81;5068806;28;20068;-64
2022/10/12 05:08:27;;;;;;;10.55;5.78;;;;;;;4.39;100.00;102348.25;5069131;28;20055;-64
2022/10/12 05:10:52;;;;;;;12.23;6.35;;;;;;;4.36;100.00;102344.06;5069554;28;20032;-64
2022/10/12 05:13:18;;;;;;;9.65;5.90;;;;;;;4.35;100.00;102344.19;5068921;28;20028;-64
2022/10/12 05:15:43;;;;;;;9.82;5.65;;;;;;;4.34;100.00;102342.50;5068723;28;20061;-64
2022/10/12 05:18:09;;;;;;;15.95;6.07;;;;;;;4.34;100.00;102337.22;5068558;28;20056;-64
2022/10/12 05:20:34;;;;;;;14.07;6.72;;;;;;;4.32;100.00;102337.34;5069018;28;20082;-64
2022/10/12 05:23:00;;;;;;;11.07;6.00;;;;;;;4.30;100.00;102336.63;5069096;28;20139;-64
2022/10/12 05:25:25;;;;;;;13.63;6.30;;;;;;;4.28;100.00;102327.97;5069807;28;20146;-64
2022/10/12 05:27:50;;;;;;;9.82;6.60;;;;;;;4.28;100.00;102332.41;5073074;28;20392;-64
2022/10/12 05:30:16;;;;;;;13.00;6.13;;;;;;;4.26;100.00;102323.75;5073101;28;20028;-64
2022/10/12 05:32:43;;;;;;;14.13;6.70;;;;;;;4.19;100.00;102323.38;5073065;28;20024;-64
2022/10/12 05:35:09;;;;;;;16.38;7.10;;;;;;;4.12;100.00;102330.94;5072882;28;20028;-64
2022/10/12 05:37:35;;;;;;;8.85;5.63;;;;;;;4.09;100.00;102325.91;5072504;28;20109;-64
2022/10/12 05:40:00;;;;;;;15.25;6.55;;;;;;;4.07;100.00;102327.81;5072330;28;20071;-64
2022/10/12 05:42:25;;;;;;;13.32;6.43;;;;;;;4.07;100.00;102329.63;5072846;28;20125;-64
2022/10/12 05:44:51;;;;;;;14.30;6.25;;;;;;;4.03;100.00;102325.53;5072867;28;20046;-64
2022/10/12 05:47:16;;;;;;;12.48;6.10;;;;;;;4.02;100.00;102323.84;5072902;28;20028;-64
2022/10/12 05:49:41;;;;;;;11.55;6.95;;;;;;;3.94;100.00;102324.44;5072693;28;20042;-64
2022/10/12 05:52:07;;;;;;;9.73;5.97;;;;;;;3.93;100.00;102320.97;5072594;28;20035;-64
2022/10/12 05:54:32;;;;;;;17.30;6.82;;;;;;;3.89;100.00;102327.41;5072631;28;20046;-65
2022/10/12 05:56:57;;;;;;;11.15;6.45;;;;;;;3.90;100.00;102326.47;5072322;28;20032;-64
2022/10/12 05:59:23;;;;;;;11.15;6.07;;;;;;;3.94;100.00;102319.16;5072457;28;20033;-64
2022/10/12 06:01:48;;;;;;;13.27;7.13;;;;;;;3.97;100.00;102326.84;5072430;28;20533;-64
2022/10/12 06:04:14;;;;;;;10.98;5.88;;;;;;;3.98;100.00;102325.88;5072447;28;20060;-65
2022/10/12 06:06:39;;;;;;;10.77;5.18;;;;;;;4.02;100.00;102326.50;5072220;28;20922;-65
2022/10/12 06:09:05;;;;;;;12.23;5.90;;;;;;;4.04;100.00;102329.88;5072292;28;20093;-64
2022/10/12 06:11:31;;;;;;;12.15;6.63;;;;;;;4.04;100.00;102337.78;5072308;28;20415;-64
2022/10/12 06:13:56;;;;;;;10.88;6.13;;;;;;;4.05;100.00;102337.66;5072387;28;20033;-64
2022/10/12 06:16:22;;;;;;;7.53;5.35;;;;;;;4.04;100.00;102327.22;5072049;28;20496;-64
2022/10/12 06:18:47;;;;;;;12.18;6.03;;;;;;;4.06;100.00;102325.28;5070111;28;20036;-64
2022/10/12 06:21:13;;;;;;;9.35;6.22;;;;;;;4.05;100.00;102319.16;5072054;28;20454;-64
2022/10/12 06:23:38;;;;;;;8.40;5.07;;;;;;;4.09;100.00;102319.78;5070416;28;20060;-64
2022/10/12 06:26:03;;;;;;;12.77;5.57;;;;;;;4.08;100.00;102329.50;5070784;28;20621;-64
2022/10/12 06:28:29;;;;;;;12.13;6.68;;;;;;;4.10;100.00;102332.84;5072055;28;20438;-64
2022/10/12 06:30:56;;;;;;;10.23;5.50;;;;;;;4.11;100.00;102320.50;5071952;28;20055;-64
2022/10/12 06:33:22;;;;;;;11.05;5.93;;;;;;;4.17;100.00;102323.53;5072068;28;20036;-64
2022/10/12 06:35:48;;;;;;;13.30;6.60;;;;;;;4.24;100.00;102326.50;5071862;28;20446;-64
2022/10/12 06:38:13;;;;;;;8.70;4.97;;;;;;;4.31;100.00;102319.78;5071068;28;20028;-64
2022/10/12 06:40:38;;;;;;;11.77;5.15;;;;;;;4.37;100.00;102316.66;5071319;28;20111;-64
2022/10/12 06:43:04;;;;;;;8.90;6.18;;;;;;;4.43;100.00;102318.00;5071811;28;20059;-64
2022/10/12 06:45:29;;;;;;;9.68;5.22;;;;;;;4.49;100.00;102311.41;5071615;28;20036;-64
2022/10/12 06:47:55;;;;;;;12.23;7.78;;;;;;;4.55;100.00;102318.84;5070311;28;20078;-64
2022/10/12 06:50:21;;;;;;;12.82;6.35;;;;;;;4.64;100.00;102315.47;5071554;28;20037;-64
2022/10/12 06:52:46;;;;;;;13.52;6.18;;;;;;;4.70;100.00;102320.28;5071519;28;20043;-64
2022/10/12 06:55:12;;;;;;;14.57;7.47;;;;;;;4.78;100.00;102324.94;5070224;28;20126;-64
2022/10/12 06:57:37;;;;;;;12.30;7.60;;;;;;;4.88;100.00;102322.41;5071318;28;20139;-64
2022/10/12 07:00:03;;;;;;;11.93;6.38;;;;;;;4.96;100.00;102320.00;5071473;28;20107;-66
2022/10/12 07:02:29;;;;;;;17.55;7.35;;;;;;;5.04;100.00;102323.69;5071320;28;20594;-67
2022/10/12 07:04:54;;;;;;;12.95;7.40;;;;;;;5.11;100.00;102329.34;5071356;28;20024;-67
2022/10/12 07:07:19;;;;;;;14.32;8.52;;;;;;;5.20;100.00;102325.09;5071625;28;20032;-67
2022/10/12 07:09:45;;;;;;;17.23;7.45;;;;;;;5.27;100.00;102323.66;5070970;28;20035;-69
2022/10/12 07:12:10;;;;;;;19.33;7.32;;;;;;;5.34;100.00;102322.16;5071074;28;20116;-67
2022/10/12 07:14:35;;;;;;;19.10;8.85;;;;;;;5.41;100.00;102314.56;5070996;28;20625;-67
2022/10/12 07:17:01;;;;;;;16.35;9.65;;;;;;;5.47;100.00;102319.34;5070706;28;20083;-69
2022/10/12 07:19:26;;;;;;;17.83;8.70;;;;;;;5.54;100.00;102314.38;5069473;28;20465;-69
2022/10/12 07:21:52;;;;;;;16.55;8.30;;;;;;;5.59;100.00;102320.97;5070457;28;20431;-69
2022/10/12 07:24:17;;;;;;;14.73;7.78;;;;;;;5.64;100.00;102312.66;5070846;28;20488;-69
2022/10/12 07:26:42;;;;;;;18.02;8.15;;;;;;;5.67;100.00;102317.69;5070978;28;20059;-70
2022/10/12 07:29:08;;;;;;;15.30;8.63;;;;;;;5.68;100.00;102314.91;5070939;28;20036;-69
2022/10/12 07:31:33;;;;;;;19.80;9.77;;;;;;;5.72;100.00;102305.75;5070933;28;20028;-68
2022/10/12 07:33:58;;;;;;;26.83;8.38;;;;;;;5.77;100.00;102310.66;5070788;28;20032;-68
2022/10/12 07:36:24;;;;;;;22.42;8.70;;;;;;;5.86;100.00;102314.34;5070713;28;20088;-66
2022/10/12 07:38:49;;;;;;;16.15;8.50;;;;;;;5.92;100.00;102306.72;5070523;28;20107;-67
2022/10/12 07:41:15;;;;;;;25.38;9.52;;;;;;;5.96;100.00;102302.03;5070376;28;20983;-66
2022/10/12 07:43:41;;;;;;;20.85;9.93;;;;;;;6.03;100.00;102305.84;5070178;28;20169;-66
2022/10/12 07:46:07;;;;;;;19.13;8.98;;;;;;;6.07;100.00;102306.41;5070350;28;20036;-66
2022/10/12 07:48:33;;;;;;;23.48;10.25;;;;;;;6.09;100.00;102309.78;5069923;28;20055;-66
2022/10/12 07:51:09;;;;;;;22.75;11.30;;;;;;;6.13;100.00;102301.44;5069754;28;20101;-66
2022/10/12 07:53:36;;;;;;;19.77;10.18;;;;;;;6.27;100.00;102317.94;5070151;28;20036;-65
2022/10/12 07:56:04;;;;;;;20.98;10.35;;;;;;;6.38;100.00;102309.91;5070292;28;20101;-67
2022/10/12 07:58:29;;;;;;;25.48;12.80;;;;;;;6.55;100.00;102314.59;5069958;28;20073;-65
2022/10/12 08:00:56;;;;;;;22.05;11.20;;;;;;;6.64;100.00;102312.09;5070164;28;20391;-65
2022/10/12 08:03:21;;;;;;;24.33;10.55;;;;;;;6.75;100.00;102317.28;5065643;28;20074;-67
2022/10/12 08:05:46;;;;;;;27.35;11.52;;;;;;;6.86;100.00;102314.50;5065446;28;20033;-66
2022/10/12 08:08:13;;;;;;;24.02;11.00;;;;;;;7.01;100.00;102309.66;5065781;28;20035;-66
2022/10/12 08:10:38;;;;;;;21.63;11.23;;;;;;;7.16;100.00;102320.72;5065717;28;20028;-68
2022/10/12 08:13:03;;;;;;;31.42;12.98;;;;;;;7.28;100.00;102318.78;5065655;28;20079;-67
2022/10/12 08:15:29;;;;;;;22.15;11.80;;;;;;;7.37;100.00;102316.13;5065841;28;20036;-67
2022/10/12 08:17:54;;;;;;;22.58;11.63;;;;;;;7.53;100.00;102325.34;5065335;28;20031;-72
2022/10/12 08:20:20;;;;;;;22.42;12.30;;;;;;;7.72;100.00;102321.84;5069786;28;20511;-69
2022/10/12 08:22:45;;;;;;;23.35;12.88;;;;;;;7.84;100.00;102310.94;5069152;28;20498;-68
2022/10/12 08:25:10;;;;;;;26.73;11.73;;;;;;;7.94;100.00;102316.22;5069240;28;20476;-69
2022/10/12 08:27:37;;;;;;;22.55;13.10;;;;;;;8.02;100.00;102313.69;5069563;28;20063;-68
2022/10/12 08:30:04;;;;;;;26.27;12.77;;;;;;;8.01;100.00;102314.66;5069630;28;20093;-68
2022/10/12 08:32:30;;;;;;;26.58;13.75;;;;;;;8.03;100.00;102323.31;5069459;28;20021;-68
2022/10/12 08:34:56;;;;;;;32.78;13.88;;;;;;;8.08;100.00;102320.25;5069599;28;20039;-68
2022/10/12 08:37:21;;;;;;;24.27;12.00;;;;;;;8.22;100.00;102316.28;5069347;28;20399;-66
2022/10/12 08:39:46;;;;;;;26.35;12.32;;;;;;;8.38;100.00;102308.53;5069537;28;20037;-66
2022/10/12 08:42:31;;;;;;;33.05;15.10;;;;;;;8.49;99.19;102316.38;5069225;28;20043;-67
2022/10/12 08:44:56;;;;;;;27.08;14.27;;;;;;;8.64;99.04;102307.88;5068618;28;20468;-64
2022/10/12 08:47:42;;;;;;;27.75;16.08;;;;;;;8.81;98.55;102312.41;5068953;28;20063;-65
2022/10/12 08:50:17;;;;;;;27.20;14.63;;;;;;;9.00;98.56;102306.13;5068895;28;20424;-63
2022/10/12 08:52:59;;;;;;;24.60;14.02;;;;;;;9.16;98.67;102314.28;5069284;28;20490;-64
2022/10/12 08:55:33;;;;;;;31.63;13.43;;;;;;;9.28;98.47;102304.25;5069395;28;20121;-65
2022/10/12 08:57:58;;;;;;;24.85;14.02;;;;;;;9.35;97.86;102302.66;5069318;28;20032;-64
2022/10/12 09:00:24;;;;;;;22.63;13.93;;;;;;;9.43;97.40;102305.41;5069087;28;20029;-64
2022/10/12 09:03:12;;;;;;;23.63;12.77;;;;;;;9.51;97.08;102309.09;5069362;28;20044;-64
2022/10/12 09:05:49;;;;;;;26.80;14.60;;;;;;;9.63;97.58;102307.88;5068996;28;20487;-64
2022/10/12 09:08:42;;;;;;;27.70;15.40;;;;;;;9.75;95.57;102308.47;5069047;28;20035;-65
2022/10/12 09:11:27;;;;;;;25.60;14.77;;;;;;;9.87;94.54;102309.88;5069072;28;20035;-65
2022/10/12 09:14:10;;;;;;;25.23;13.45;;;;;;;10.02;96.22;102310.97;5069130;28;20028;-65
2022/10/12 09:16:41;;;;;;;28.38;14.55;;;;;;;10.14;96.14;102313.38;5068659;28;20052;-67
2022/10/12 09:19:17;;;;;;;24.08;15.00;;;;;;;10.17;95.02;102313.09;5068979;28;20079;-69
2022/10/12 09:21:45;;;;;;;30.73;16.00;;;;;;;10.13;94.39;102309.06;5068817;28;20486;-67
2022/10/12 09:24:16;;;;;;;27.00;14.98;;;;;;;10.15;95.26;102315.91;5068146;28;20635;-68
2022/10/12 09:26:43;;;;;;;;;;;;;;;10.20;95.89;102316.25;5069361;28;20020;-68
2022/10/12 09:29:30;;;;;;;28.52;15.05;;;;;;;10.31;94.80;102325.84;5068994;28;20259;-70
2022/10/12 09:32:33;;;;;;;25.20;13.82;;;;;;;10.47;93.85;102325.94;5068965;28;20384;-71
2022/10/12 09:34:58;;;;;;;31.75;15.27;;;;;;;10.58;93.46;102329.31;5068950;28;20391;-72
2022/10/12 09:37:28;;;;;;;25.63;14.15;;;;;;;10.62;92.05;102326.16;5069289;28;20036;-72
2022/10/12 09:39:54;;;;;;;24.38;14.50;;;;;;;10.65;91.91;102330.34;5068904;28;20028;-70
2022/10/12 09:42:19;;;;;;;25.65;14.82;;;;;;;10.70;92.49;102320.03;5068998;28;20020;-68
2022/10/12 09:44:54;;;;;;;27.45;16.70;;;;;;;10.77;92.59;102323.72;5068897;28;20813;-66
2022/10/12 09:47:32;;;;;;;30.38;16.27;;;;;;;10.85;90.96;102315.75;5068546;28;20037;-71
2022/10/12 09:50:01;;;;;;;28.52;15.07;;;;;;;10.93;90.08;102304.25;5068347;28;20036;-68
2022/10/12 09:52:41;;;;;;;28.95;15.45;;;;;;;11.12;90.63;102311.97;5068503;28;20024;-69
2022/10/12 09:55:15;;;;;;;31.58;16.38;;;;;;;11.32;88.87;102307.16;5068780;28;20035;-66
2022/10/12 09:57:43;;;;;;;26.27;15.90;;;;;;;11.45;88.06;102308.47;5068717;28;20037;-69
2022/10/12 10:00:38;;;;;;;28.17;14.50;;;;;;;11.57;89.46;102301.81;5068465;28;20028;-67
2022/10/12 10:03:03;;;;;;;24.02;15.60;;;;;;;11.63;87.80;102306.47;5057908;28;20047;-68
2022/10/12 10:05:30;;;;;;;30.10;16.70;;;;;;;11.69;87.28;102305.81;5064374;28;20025;-67
2022/10/12 10:08:14;;;;;;;30.08;16.10;;;;;;;11.79;88.66;102300.31;5064443;28;20027;-65
2022/10/12 10:10:54;;;;;;;25.90;14.98;;;;;;;11.92;86.39;102298.00;5064444;28;20478;-69
2022/10/12 10:13:21;;;;;;;25.25;15.63;;;;;;;12.00;85.94;102300.63;5066229;28;20091;-67
2022/10/12 10:15:50;;;;;;;27.50;17.20;;;;;;;12.04;86.03;102293.09;5066924;28;20057;-67
2022/10/12 10:18:30;;;;;;;27.52;15.63;;;;;;;12.10;85.80;102291.56;5068235;28;20028;-67
2022/10/12 10:20:58;;;;;;;25.85;16.48;;;;;;;12.17;85.36;102277.34;5067845;28;20141;-66
2022/10/12 10:23:27;;;;;;;24.42;15.60;;;;;;;12.30;85.53;102275.97;5067989;28;20024;-67
2022/10/12 10:26:06;;;;;;;27.33;17.55;;;;;;;12.41;85.21;102268.41;5067436;28;20092;-67
2022/10/12 10:28:34;;;;;;;27.85;17.27;;;;;;;12.47;83.87;102275.75;5067442;28;20009;-67
2022/10/12 10:31:02;;;;;;;23.70;15.35;;;;;;;12.52;83.66;102275.19;5067238;28;20105;-67
2022/10/12 10:33:37;;;;;;;30.15;17.80;;;;;;;12.62;83.28;102275.81;5066143;28;20032;-67
2022/10/12 10:36:10;;;;;;;26.80;17.20;;;;;;;12.77;83.50;102272.41;5067448;28;20089;-67
2022/10/12 10:38:51;;;;;;;22.90;15.13;;;;;;;12.80;83.23;102282.78;5067788;28;20035;-66
2022/10/12 10:41:19;;;;;;;23.48;16.33;;;;;;;12.83;81.23;102283.25;5067206;28;20033;-67
2022/10/12 10:43:48;;;;;;;26.35;14.77;;;;;;;12.81;80.22;102285.28;5066922;28;20107;-67
2022/10/12 10:46:21;;;;;;;25.45;15.23;;;;;;;12.76;81.44;102281.44;5067340;28;20036;-67
2022/10/12 10:49:00;;;;;;;25.92;15.00;;;;;;;12.84;83.50;102292.13;5066666;28;20036;-67
2022/10/12 10:51:46;;;;;;;25.83;15.10;;;;;;;12.90;83.79;102283.38;5066884;28;20126;-67
2022/10/12 10:54:15;;;;;;;24.92;14.50;;;;;;;12.98;80.65;102277.97;5065864;28;20020;-67
2022/10/12 10:56:45;;;;;;;26.45;16.08;;;;;;;13.05;80.76;102276.25;5066909;28;20045;-67
2022/10/12 10:59:35;;;;;;;28.45;16.52;;;;;;;13.15;83.00;102278.69;5066620;28;20065;-68
2022/10/12 11:02:10;;;;;;;28.55;17.20;;;;;;;13.16;80.38;102283.88;5066881;28;20043;-67
2022/10/12 11:04:40;;;;;;;24.92;14.30;;;;;;;13.23;80.68;102277.78;5066678;28;20491;-67
2022/10/12 11:07:30;;;;;;;21.92;14.63;;;;;;;13.35;81.39;102268.34;5066540;28;20036;-67
2022/10/12 11:10:00;;;;;;;26.15;14.50;;;;;;;13.40;78.43;102254.41;5066935;28;20380;-67
2022/10/12 11:12:33;;;;;;;28.48;14.63;;;;;;;13.41;78.21;102259.59;5066770;28;20958;-67
2022/10/12 11:15:13;;;;;;;22.77;13.15;;;;;;;13.47;78.84;102261.56;5066771;28;20032;-67
2022/10/12 11:17:47;;;;;;;22.38;14.20;;;;;;;13.47;78.63;102242.78;5066384;28;20051;-68
2022/10/12 11:20:19;;;;;;;21.25;12.32;;;;;;;13.59;78.26;102253.91;5066922;28;20119;-68
2022/10/12 11:22:53;;;;;;;19.70;12.40;;;;;;;13.66;77.04;102240.63;5068847;28;20032;-67
2022/10/12 11:25:43;;;;;;;23.10;13.70;;;;;;;13.74;77.36;102241.34;5070872;28;20035;-66
2022/10/12 11:28:14;;;;;;;24.40;13.00;;;;;;;13.84;76.07;102237.59;5070176;28;20111;-67